Flight Track Log - Related Links

Times and Time Zones

All times are in EDT time to prevent confusion due to time zone crossing. See the N518QS flight status page for this flight to view local times or setup timezone preferences in your user account.

Time Position Orientation Groundspeed Altitude Reporting Facility
EDT Latitude Longitude Course Direction KTS MPH feet Rate Location/Type
Mon 03:48:05 PM 39.0000 -77.6333 53° Northeast 265 305 5,000  Level Potomac TRACON
Mon 03:49:05 PM 39.0667 -77.6833 330° Northwest 276 318 7,500 2,000 Climbing Potomac TRACON
Mon 03:50:05 PM 39.1333 -77.6333 30° Northeast 296 341 9,000 500 Climbing Potomac TRACON
Mon 03:52:00 PM 39.2624 -76.9219 53° Northeast  Level Estimated
Mon 03:52:05 PM 39.2000 -77.4333 67° East 295 339 9,000  Level Potomac TRACON
Mon 03:53:00 PM 39.3193 -76.8237 53° Northeast  Level Estimated
Mon 03:53:06 PM 39.2333 -77.3500 63° Northeast 300 345 9,400  Level Potomac TRACON
Mon 03:54:06 PM 39.2667 -77.2500 67° East 311 358 10,800 1,950 Climbing Potomac TRACON
Mon 03:55:06 PM 39.3000 -77.1167 72° East 377 434 13,300 1,729 Climbing Potomac TRACON
Mon 03:56:56 PM 39.3108 -76.8844 86° East 400 460 15,700 1,298 Climbing Washington Center
Mon 03:57:57 PM 39.2686 -76.7417 111° Southeast 395 455 17,000 1,328 Climbing Washington Center
Mon 03:58:58 PM 39.2344 -76.5964 107° East 405 466 18,400 992 Climbing Washington Center
Mon 03:59:58 PM 39.1958 -76.4486 109° East 423 487 19,000 300 Climbing Washington Center
Mon 04:00:58 PM 39.1844 -76.2958 95° East 429 494 19,000  Level Washington Center
Mon 04:01:56 PM 39.2539 -76.1733 54° Northeast 383 441 19,000  Level Washington Center
Mon 04:02:56 PM 39.3500 -76.0747 38° Northeast 396 456 19,000  Level Washington Center
Mon 04:03:56 PM 39.4506 -75.9678 39° Northeast 401 461 19,000  Level Washington Center
Mon 04:04:57 PM 39.5444 -75.8714 38° Northeast 416 479 19,000 -99 Level Washington Center
Mon 04:05:57 PM 39.6342 -75.7747 40° Northeast 427 491 18,800 -1,103 Descending Washington Center
Mon 04:06:24 PM 39.6833 -75.7333 33° Northeast 423 487 17,400 -2,732 Descending Philadelphia TRACON
Mon 04:08:00 PM 39.8167 -75.5833 41° Northeast 399 459 13,200 -1,630 Descending Philadelphia TRACON
Mon 04:09:06 PM 39.9167 -75.4833 37° Northeast 392 451 13,000 -105 Descending Philadelphia TRACON
Mon 04:09:54 PM 39.9833 -75.4167 37° Northeast 392 451 13,000  Level Philadelphia TRACON
Mon 04:10:54 PM 40.0833 -75.3333 33° Northeast 393 452 13,000  Level Philadelphia TRACON
Mon 04:11:54 PM 40.1667 -75.2667 31° Northeast 371 427 13,000 -1,160 Level Philadelphia TRACON
Mon 04:14:26 PM 40.3333 -75.1000 37° Northeast 296 341 8,900 -1,613 Descending New York TRACON
Mon 04:15:26 PM 40.3833 -75.0167 52° Northeast 294 338 7,300 -1,263 Descending New York TRACON
Mon 04:16:20 PM 40.4333 -74.9500 45° Northeast 291 335 6,500 -1,211 Descending New York TRACON
Mon 04:17:20 PM 40.5000 -74.8667 44° Northeast 283 326 5,000 -1,190 Descending New York TRACON
Mon 04:18:26 PM 40.5500 -74.7833 52° Northeast 276 318 4,000 -500 Descending New York TRACON
Mon 04:19:20 PM 40.6000 -74.7167 45° Northeast 276 318 4,000  Level New York TRACON
Mon 04:20:20 PM 40.6667 -74.6833 21° North 277 319 4,000  Level New York TRACON
Mon 04:21:20 PM 40.7333 -74.6333 30° Northeast 275 316 4,000 50 Level New York TRACON
Mon 04:22:20 PM 40.8000 -74.5833 30° Northeast 273 314 4,100  Climbing New York TRACON
Mon 04:23:20 PM 40.8500 -74.5167 45° Northeast 275 316 4,000 -250 Descending New York TRACON
Mon 04:24:20 PM 40.9000 -74.4500 45° Northeast 272 313 3,600 -500 Descending New York TRACON
Mon 04:25:20 PM 40.9333 -74.3500 66° East 275 316 3,000 -450 Descending New York TRACON
Mon 04:26:20 PM 40.9667 -74.2667 62° Northeast 242 278 2,700 -429 Descending New York TRACON
Mon 04:27:26 PM 41.0000 -74.1833 62° Northeast 243 280 2,100 -333 Descending New York TRACON
Mon 04:28:26 PM 41.0333 -74.1000 62° Northeast 233 268 2,000  Descending New York TRACON
Mon 04:29:26 PM 40.9833 -74.0500 143° Southeast 196 226 2,100 -100 Climbing New York TRACON
Mon 04:30:26 PM 40.9500 -74.0500 180° South 171 197 1,800 -550 Descending New York TRACON
Mon 04:31:26 PM 40.9000 -74.0500 180° South 161 185 1,000 -800 Descending New York TRACON
Mon 04:33:00 PM 40.8500 -74.0500 180° South  Level FlightAware Approximate
Mon 04:40:00 PM 40.8501 -74.0608 180° South  Level Estimated
Mon 04:41:00 PM 40.8501 -74.0608 180° South  Level Estimated

Login

Don't have an account? Register now (free) for customized features, flight alerts, and more!